sensor_id;sensor_type;location;lat;lon;timestamp;P1;durP1;ratioP1;P2;durP2;ratioP2
20159;SDS011;50187;50.492;12.134;2022-11-18T00:02:04;2.13;;;2.03;;
20159;SDS011;50187;50.492;12.134;2022-11-18T00:04:50;2.33;;;2.13;;
20159;SDS011;50187;50.492;12.134;2022-11-18T00:07:35;2.70;;;2.50;;
20159;SDS011;50187;50.492;12.134;2022-11-18T00:10:20;2.10;;;1.93;;
20159;SDS011;50187;50.492;12.134;2022-11-18T00:13:06;3.30;;;2.50;;
20159;SDS011;50187;50.492;12.134;2022-11-18T00:16:13;3.53;;;2.73;;
20159;SDS011;50187;50.492;12.134;2022-11-18T00:18:58;2.30;;;2.10;;
20159;SDS011;50187;50.492;12.134;2022-11-18T00:21:43;3.47;;;1.93;;
20159;SDS011;50187;50.492;12.134;2022-11-18T00:24:28;2.77;;;2.17;;
20159;SDS011;50187;50.492;12.134;2022-11-18T00:27:14;2.50;;;2.30;;
20159;SDS011;50187;50.492;12.134;2022-11-18T00:29:59;2.10;;;1.90;;
20159;SDS011;50187;50.492;12.134;2022-11-18T00:32:44;2.30;;;2.10;;
20159;SDS011;50187;50.492;12.134;2022-11-18T00:35:30;3.63;;;2.10;;
20159;SDS011;50187;50.492;12.134;2022-11-18T00:38:14;2.80;;;2.37;;
20159;SDS011;50187;50.492;12.134;2022-11-18T00:41:07;3.27;;;2.23;;
20159;SDS011;50187;50.492;12.134;2022-11-18T00:43:57;2.60;;;2.40;;
20159;SDS011;50187;50.492;12.134;2022-11-18T00:46:42;2.33;;;1.83;;
20159;SDS011;50187;50.492;12.134;2022-11-18T00:49:27;2.73;;;1.90;;
20159;SDS011;50187;50.492;12.134;2022-11-18T00:52:13;2.60;;;2.10;;
20159;SDS011;50187;50.492;12.134;2022-11-18T00:54:58;2.83;;;2.23;;
20159;SDS011;50187;50.492;12.134;2022-11-18T00:57:43;3.60;;;2.03;;
20159;SDS011;50187;50.492;12.134;2022-11-18T01:00:28;2.33;;;1.80;;
20159;SDS011;50187;50.492;12.134;2022-11-18T01:03:13;4.70;;;2.13;;
20159;SDS011;50187;50.492;12.134;2022-11-18T01:05:59;2.40;;;1.97;;
20159;SDS011;50187;50.492;12.134;2022-11-18T01:08:44;2.43;;;2.00;;
20159;SDS011;50187;50.492;12.134;2022-11-18T01:11:29;2.20;;;1.90;;
20159;SDS011;50187;50.492;12.134;2022-11-18T01:14:33;1.80;;;1.70;;
20159;SDS011;50187;50.492;12.134;2022-11-18T01:17:18;1.73;;;1.63;;
20159;SDS011;50187;50.492;12.134;2022-11-18T01:20:03;1.70;;;1.60;;
20159;SDS011;50187;50.492;12.134;2022-11-18T01:22:49;2.77;;;1.57;;
20159;SDS011;50187;50.492;12.134;2022-11-18T01:25:38;2.80;;;1.90;;
20159;SDS011;50187;50.492;12.134;2022-11-18T01:28:24;2.90;;;1.73;;
20159;SDS011;50187;50.492;12.134;2022-11-18T01:31:16;2.40;;;2.20;;
20159;SDS011;50187;50.492;12.134;2022-11-18T01:34:03;3.67;;;2.10;;
20159;SDS011;50187;50.492;12.134;2022-11-18T01:36:48;2.20;;;2.00;;
20159;SDS011;50187;50.492;12.134;2022-11-18T01:39:36;1.57;;;1.47;;
20159;SDS011;50187;50.492;12.134;2022-11-18T01:42:21;2.00;;;1.90;;
20159;SDS011;50187;50.492;12.134;2022-11-18T01:51:03;2.30;;;2.10;;
20159;SDS011;50187;50.492;12.134;2022-11-18T01:53:57;1.80;;;1.70;;
20159;SDS011;50187;50.492;12.134;2022-11-18T01:56:48;1.93;;;1.83;;
20159;SDS011;50187;50.492;12.134;2022-11-18T01:59:36;2.07;;;1.97;;
20159;SDS011;50187;50.492;12.134;2022-11-18T02:02:24;2.10;;;1.90;;
20159;SDS011;50187;50.492;12.134;2022-11-18T02:05:10;2.13;;;1.93;;
20159;SDS011;50187;50.492;12.134;2022-11-18T02:07:57;3.67;;;1.90;;
20159;SDS011;50187;50.492;12.134;2022-11-18T02:10:45;1.90;;;1.80;;
20159;SDS011;50187;50.492;12.134;2022-11-18T02:13:30;2.00;;;1.83;;
20159;SDS011;50187;50.492;12.134;2022-11-18T02:16:19;1.93;;;1.83;;
20159;SDS011;50187;50.492;12.134;2022-11-18T02:29:00;1.70;;;1.60;;
20159;SDS011;50187;50.492;12.134;2022-11-18T02:31:54;2.13;;;2.00;;
20159;SDS011;50187;50.492;12.134;2022-11-18T02:34:52;1.63;;;1.53;;
20159;SDS011;50187;50.492;12.134;2022-11-18T02:37:47;2.13;;;2.00;;
20159;SDS011;50187;50.492;12.134;2022-11-18T02:40:38;2.00;;;1.90;;
20159;SDS011;50187;50.492;12.134;2022-11-18T02:43:33;2.00;;;1.70;;
20159;SDS011;50187;50.492;12.134;2022-11-18T02:46:28;1.60;;;1.50;;
20159;SDS011;50187;50.492;12.134;2022-11-18T02:49:37;1.87;;;1.77;;
20159;SDS011;50187;50.492;12.134;2022-11-18T02:52:26;1.50;;;1.40;;
20159;SDS011;50187;50.492;12.134;2022-11-18T02:55:12;1.80;;;1.70;;
20159;SDS011;50187;50.492;12.134;2022-11-18T02:58:00;2.07;;;1.67;;
20159;SDS011;50187;50.492;12.134;2022-11-18T03:00:53;1.70;;;1.60;;
20159;SDS011;50187;50.492;12.134;2022-11-18T03:03:39;1.67;;;1.57;;
20159;SDS011;50187;50.492;12.134;2022-11-18T03:06:29;1.93;;;1.67;;
20159;SDS011;50187;50.492;12.134;2022-11-18T03:09:22;2.07;;;1.87;;
20159;SDS011;50187;50.492;12.134;2022-11-18T03:12:13;1.70;;;1.60;;
20159;SDS011;50187;50.492;12.134;2022-11-18T03:15:52;1.80;;;1.70;;
20159;SDS011;50187;50.492;12.134;2022-11-18T03:18:41;1.80;;;1.70;;
20159;SDS011;50187;50.492;12.134;2022-11-18T03:21:42;1.50;;;1.40;;
20159;SDS011;50187;50.492;12.134;2022-11-18T03:24:32;1.60;;;1.50;;
20159;SDS011;50187;50.492;12.134;2022-11-18T03:27:25;1.90;;;1.80;;
20159;SDS011;50187;50.492;12.134;2022-11-18T03:30:18;1.60;;;1.50;;
20159;SDS011;50187;50.492;12.134;2022-11-18T03:33:07;1.63;;;1.50;;
20159;SDS011;50187;50.492;12.134;2022-11-18T03:35:58;1.17;;;1.17;;
20159;SDS011;50187;50.492;12.134;2022-11-18T03:38:49;1.77;;;1.67;;
20159;SDS011;50187;50.492;12.134;2022-11-18T03:41:39;1.73;;;1.63;;
20159;SDS011;50187;50.492;12.134;2022-11-18T03:44:31;1.50;;;1.40;;
20159;SDS011;50187;50.492;12.134;2022-11-18T03:47:27;1.63;;;1.53;;
20159;SDS011;50187;50.492;12.134;2022-11-18T03:50:17;1.67;;;1.57;;
20159;SDS011;50187;50.492;12.134;2022-11-18T03:53:06;1.60;;;1.50;;
20159;SDS011;50187;50.492;12.134;2022-11-18T03:55:55;1.70;;;1.60;;
20159;SDS011;50187;50.492;12.134;2022-11-18T03:58:53;1.53;;;1.50;;
20159;SDS011;50187;50.492;12.134;2022-11-18T04:01:53;1.50;;;1.40;;
20159;SDS011;50187;50.492;12.134;2022-11-18T04:04:44;1.53;;;1.43;;
20159;SDS011;50187;50.492;12.134;2022-11-18T04:07:35;1.40;;;1.40;;
20159;SDS011;50187;50.492;12.134;2022-11-18T04:10:28;1.63;;;1.53;;
20159;SDS011;50187;50.492;12.134;2022-11-18T04:13:27;1.50;;;1.40;;
20159;SDS011;50187;50.492;12.134;2022-11-18T04:16:16;1.50;;;1.40;;
20159;SDS011;50187;50.492;12.134;2022-11-18T04:19:01;1.70;;;1.60;;
20159;SDS011;50187;50.492;12.134;2022-11-18T04:21:50;1.60;;;1.50;;
20159;SDS011;50187;50.492;12.134;2022-11-18T04:24:36;1.90;;;1.80;;
20159;SDS011;50187;50.492;12.134;2022-11-18T04:27:21;1.80;;;1.70;;
20159;SDS011;50187;50.492;12.134;2022-11-18T04:30:06;2.30;;;2.00;;
20159;SDS011;50187;50.492;12.134;2022-11-18T04:32:52;2.00;;;1.87;;
20159;SDS011;50187;50.492;12.134;2022-11-18T04:35:37;1.50;;;1.40;;
20159;SDS011;50187;50.492;12.134;2022-11-18T04:38:22;1.40;;;1.40;;
20159;SDS011;50187;50.492;12.134;2022-11-18T04:41:07;1.67;;;1.57;;
20159;SDS011;50187;50.492;12.134;2022-11-18T04:43:53;1.60;;;1.50;;
20159;SDS011;50187;50.492;12.134;2022-11-18T04:46:39;1.60;;;1.50;;
20159;SDS011;50187;50.492;12.134;2022-11-18T04:49:26;1.50;;;1.40;;
20159;SDS011;50187;50.492;12.134;2022-11-18T04:52:12;1.60;;;1.50;;
20159;SDS011;50187;50.492;12.134;2022-11-18T04:54:57;1.30;;;1.30;;
20159;SDS011;50187;50.492;12.134;2022-11-18T04:57:42;1.77;;;1.60;;
20159;SDS011;50187;50.492;12.134;2022-11-18T05:00:27;1.60;;;1.50;;
20159;SDS011;50187;50.492;12.134;2022-11-18T05:03:13;1.67;;;1.60;;
20159;SDS011;50187;50.492;12.134;2022-11-18T05:06:00;1.70;;;1.60;;
20159;SDS011;50187;50.492;12.134;2022-11-18T05:08:45;1.77;;;1.67;;
20159;SDS011;50187;50.492;12.134;2022-11-18T05:11:31;1.20;;;1.10;;
20159;SDS011;50187;50.492;12.134;2022-11-18T05:14:35;1.30;;;1.30;;
20159;SDS011;50187;50.492;12.134;2022-11-18T05:17:20;1.50;;;1.40;;
20159;SDS011;50187;50.492;12.134;2022-11-18T05:20:05;1.50;;;1.40;;
20159;SDS011;50187;50.492;12.134;2022-11-18T05:22:50;1.70;;;1.60;;
20159;SDS011;50187;50.492;12.134;2022-11-18T05:25:35;1.50;;;1.40;;
20159;SDS011;50187;50.492;12.134;2022-11-18T05:28:20;1.60;;;1.50;;
20159;SDS011;50187;50.492;12.134;2022-11-18T05:31:08;1.47;;;1.37;;
20159;SDS011;50187;50.492;12.134;2022-11-18T05:33:54;1.70;;;1.60;;
20159;SDS011;50187;50.492;12.134;2022-11-18T05:36:39;1.50;;;1.40;;
20159;SDS011;50187;50.492;12.134;2022-11-18T05:39:25;1.27;;;1.27;;
20159;SDS011;50187;50.492;12.134;2022-11-18T05:42:10;1.80;;;1.70;;
20159;SDS011;50187;50.492;12.134;2022-11-18T05:45:15;1.50;;;1.40;;
20159;SDS011;50187;50.492;12.134;2022-11-18T05:48:00;1.60;;;1.50;;
20159;SDS011;50187;50.492;12.134;2022-11-18T05:50:48;1.40;;;1.30;;
20159;SDS011;50187;50.492;12.134;2022-11-18T05:53:35;1.60;;;1.50;;
20159;SDS011;50187;50.492;12.134;2022-11-18T05:56:21;1.40;;;1.30;;
20159;SDS011;50187;50.492;12.134;2022-11-18T05:59:12;1.50;;;1.40;;
20159;SDS011;50187;50.492;12.134;2022-11-18T06:01:59;1.60;;;1.50;;
20159;SDS011;50187;50.492;12.134;2022-11-18T06:04:48;1.43;;;1.43;;
20159;SDS011;50187;50.492;12.134;2022-11-18T06:07:38;1.43;;;1.30;;
20159;SDS011;50187;50.492;12.134;2022-11-18T06:10:29;1.17;;;1.17;;
20159;SDS011;50187;50.492;12.134;2022-11-18T06:13:20;1.20;;;1.20;;
20159;SDS011;50187;50.492;12.134;2022-11-18T06:16:20;1.33;;;1.33;;
20159;SDS011;50187;50.492;12.134;2022-11-18T06:19:10;1.50;;;1.40;;
20159;SDS011;50187;50.492;12.134;2022-11-18T06:21:55;1.43;;;1.33;;
20159;SDS011;50187;50.492;12.134;2022-11-18T06:24:41;1.20;;;1.20;;
20159;SDS011;50187;50.492;12.134;2022-11-18T06:27:27;1.50;;;1.40;;
20159;SDS011;50187;50.492;12.134;2022-11-18T06:30:13;1.40;;;1.40;;
20159;SDS011;50187;50.492;12.134;2022-11-18T06:32:59;1.50;;;1.40;;
20159;SDS011;50187;50.492;12.134;2022-11-18T06:35:44;1.50;;;1.43;;
20159;SDS011;50187;50.492;12.134;2022-11-18T06:38:29;1.53;;;1.43;;
20159;SDS011;50187;50.492;12.134;2022-11-18T06:41:14;1.20;;;1.20;;
20159;SDS011;50187;50.492;12.134;2022-11-18T06:43:59;1.30;;;1.30;;
20159;SDS011;50187;50.492;12.134;2022-11-18T06:46:44;1.70;;;1.60;;
20159;SDS011;50187;50.492;12.134;2022-11-18T06:49:42;1.60;;;1.50;;
20159;SDS011;50187;50.492;12.134;2022-11-18T06:52:27;1.73;;;1.63;;
20159;SDS011;50187;50.492;12.134;2022-11-18T06:55:12;3.27;;;2.17;;
20159;SDS011;50187;50.492;12.134;2022-11-18T06:57:58;3.97;;;2.90;;
20159;SDS011;50187;50.492;12.134;2022-11-18T07:00:43;5.30;;;4.33;;
20159;SDS011;50187;50.492;12.134;2022-11-18T07:03:28;5.77;;;4.50;;
20159;SDS011;50187;50.492;12.134;2022-11-18T07:06:15;4.83;;;4.47;;
20159;SDS011;50187;50.492;12.134;2022-11-18T07:09:03;7.77;;;4.87;;
20159;SDS011;50187;50.492;12.134;2022-11-18T07:11:50;6.73;;;3.97;;
20159;SDS011;50187;50.492;12.134;2022-11-18T07:14:35;4.90;;;3.40;;
20159;SDS011;50187;50.492;12.134;2022-11-18T07:17:21;4.63;;;3.97;;
20159;SDS011;50187;50.492;12.134;2022-11-18T07:20:06;4.30;;;3.83;;
20159;SDS011;50187;50.492;12.134;2022-11-18T07:22:52;3.67;;;3.37;;
20159;SDS011;50187;50.492;12.134;2022-11-18T07:25:37;5.80;;;3.20;;
20159;SDS011;50187;50.492;12.134;2022-11-18T07:28:29;3.53;;;3.23;;
20159;SDS011;50187;50.492;12.134;2022-11-18T07:31:18;3.50;;;3.20;;
20159;SDS011;50187;50.492;12.134;2022-11-18T07:34:04;7.50;;;3.13;;
20159;SDS011;50187;50.492;12.134;2022-11-18T07:36:50;5.50;;;3.30;;
20159;SDS011;50187;50.492;12.134;2022-11-18T07:39:35;4.43;;;3.40;;
20159;SDS011;50187;50.492;12.134;2022-11-18T07:42:20;3.50;;;3.20;;
20159;SDS011;50187;50.492;12.134;2022-11-18T07:45:05;5.07;;;2.57;;
20159;SDS011;50187;50.492;12.134;2022-11-18T07:47:51;3.57;;;3.27;;
20159;SDS011;50187;50.492;12.134;2022-11-18T07:50:36;3.23;;;2.87;;
20159;SDS011;50187;50.492;12.134;2022-11-18T07:53:21;3.00;;;2.70;;
20159;SDS011;50187;50.492;12.134;2022-11-18T07:56:06;2.57;;;2.33;;
20159;SDS011;50187;50.492;12.134;2022-11-18T07:58:52;3.10;;;2.80;;
20159;SDS011;50187;50.492;12.134;2022-11-18T08:01:39;2.83;;;2.63;;
20159;SDS011;50187;50.492;12.134;2022-11-18T08:04:24;3.17;;;2.47;;
20159;SDS011;50187;50.492;12.134;2022-11-18T08:07:09;2.80;;;2.60;;
20159;SDS011;50187;50.492;12.134;2022-11-18T08:09:54;3.10;;;2.80;;
20159;SDS011;50187;50.492;12.134;2022-11-18T08:12:39;2.77;;;2.57;;
20159;SDS011;50187;50.492;12.134;2022-11-18T08:15:25;4.23;;;2.67;;
20159;SDS011;50187;50.492;12.134;2022-11-18T08:18:10;2.57;;;2.37;;
20159;SDS011;50187;50.492;12.134;2022-11-18T08:21:01;2.83;;;2.20;;
20159;SDS011;50187;50.492;12.134;2022-11-18T08:23:51;2.83;;;2.50;;
20159;SDS011;50187;50.492;12.134;2022-11-18T08:26:38;2.83;;;2.33;;
20159;SDS011;50187;50.492;12.134;2022-11-18T08:29:23;2.67;;;2.47;;
20159;SDS011;50187;50.492;12.134;2022-11-18T08:32:09;2.60;;;2.40;;
20159;SDS011;50187;50.492;12.134;2022-11-18T08:34:54;2.87;;;2.67;;
20159;SDS011;50187;50.492;12.134;2022-11-18T08:37:39;2.60;;;2.40;;
20159;SDS011;50187;50.492;12.134;2022-11-18T08:40:25;2.63;;;2.43;;
20159;SDS011;50187;50.492;12.134;2022-11-18T08:43:10;2.50;;;2.30;;
20159;SDS011;50187;50.492;12.134;2022-11-18T08:45:55;4.70;;;2.10;;
20159;SDS011;50187;50.492;12.134;2022-11-18T08:48:41;2.27;;;2.03;;
20159;SDS011;50187;50.492;12.134;2022-11-18T08:51:26;2.30;;;2.10;;
20159;SDS011;50187;50.492;12.134;2022-11-18T08:54:12;2.67;;;2.47;;
20159;SDS011;50187;50.492;12.134;2022-11-18T08:56:58;1.90;;;1.80;;
20159;SDS011;50187;50.492;12.134;2022-11-18T08:59:43;1.93;;;1.83;;
20159;SDS011;50187;50.492;12.134;2022-11-18T09:02:28;2.27;;;2.10;;
20159;SDS011;50187;50.492;12.134;2022-11-18T09:05:13;4.23;;;2.20;;
20159;SDS011;50187;50.492;12.134;2022-11-18T09:07:58;2.10;;;1.93;;
20159;SDS011;50187;50.492;12.134;2022-11-18T09:10:43;2.03;;;1.80;;
20159;SDS011;50187;50.492;12.134;2022-11-18T09:13:28;2.00;;;1.90;;
20159;SDS011;50187;50.492;12.134;2022-11-18T09:16:33;2.40;;;2.20;;
20159;SDS011;50187;50.492;12.134;2022-11-18T09:19:19;3.23;;;2.27;;
20159;SDS011;50187;50.492;12.134;2022-11-18T09:22:24;2.40;;;2.20;;
20159;SDS011;50187;50.492;12.134;2022-11-18T09:25:09;2.53;;;2.30;;
20159;SDS011;50187;50.492;12.134;2022-11-18T09:27:55;2.07;;;1.90;;
20159;SDS011;50187;50.492;12.134;2022-11-18T09:30:40;1.93;;;1.83;;
20159;SDS011;50187;50.492;12.134;2022-11-18T09:33:26;2.77;;;1.90;;
20159;SDS011;50187;50.492;12.134;2022-11-18T09:36:12;3.87;;;2.10;;
20159;SDS011;50187;50.492;12.134;2022-11-18T09:38:58;1.73;;;1.63;;
20159;SDS011;50187;50.492;12.134;2022-11-18T09:42:09;3.00;;;1.63;;
20159;SDS011;50187;50.492;12.134;2022-11-18T09:45:16;1.90;;;1.80;;
20159;SDS011;50187;50.492;12.134;2022-11-18T09:48:19;2.10;;;1.90;;
20159;SDS011;50187;50.492;12.134;2022-11-18T09:51:36;3.90;;;1.63;;
20159;SDS011;50187;50.492;12.134;2022-11-18T09:54:25;2.33;;;2.13;;
20159;SDS011;50187;50.492;12.134;2022-11-18T09:57:15;2.10;;;1.90;;
20159;SDS011;50187;50.492;12.134;2022-11-18T10:00:16;2.10;;;2.00;;
20159;SDS011;50187;50.492;12.134;2022-11-18T10:03:06;2.07;;;1.90;;
20159;SDS011;50187;50.492;12.134;2022-11-18T10:06:12;2.80;;;2.30;;
20159;SDS011;50187;50.492;12.134;2022-11-18T10:15:26;2.03;;;1.93;;
20159;SDS011;50187;50.492;12.134;2022-11-18T10:18:23;1.90;;;1.80;;
20159;SDS011;50187;50.492;12.134;2022-11-18T10:24:42;4.47;;;1.83;;
20159;SDS011;50187;50.492;12.134;2022-11-18T10:27:33;3.43;;;2.40;;
20159;SDS011;50187;50.492;12.134;2022-11-18T10:30:23;2.87;;;2.00;;
20159;SDS011;50187;50.492;12.134;2022-11-18T10:36:23;2.00;;;1.90;;
20159;SDS011;50187;50.492;12.134;2022-11-18T10:39:12;1.90;;;1.80;;
20159;SDS011;50187;50.492;12.134;2022-11-18T10:42:01;2.33;;;2.20;;
20159;SDS011;50187;50.492;12.134;2022-11-18T10:44:49;1.87;;;1.73;;
20159;SDS011;50187;50.492;12.134;2022-11-18T10:47:34;1.90;;;1.80;;
20159;SDS011;50187;50.492;12.134;2022-11-18T10:50:39;2.10;;;1.97;;
20159;SDS011;50187;50.492;12.134;2022-11-18T10:53:30;2.40;;;2.20;;
20159;SDS011;50187;50.492;12.134;2022-11-18T10:56:20;1.80;;;1.70;;
20159;SDS011;50187;50.492;12.134;2022-11-18T10:59:10;2.50;;;2.30;;
20159;SDS011;50187;50.492;12.134;2022-11-18T11:05:16;2.73;;;1.80;;
20159;SDS011;50187;50.492;12.134;2022-11-18T11:08:16;1.80;;;1.70;;
20159;SDS011;50187;50.492;12.134;2022-11-18T11:11:31;2.27;;;1.97;;
20159;SDS011;50187;50.492;12.134;2022-11-18T11:14:23;2.00;;;1.90;;
20159;SDS011;50187;50.492;12.134;2022-11-18T11:23:12;1.83;;;1.73;;
20159;SDS011;50187;50.492;12.134;2022-11-18T11:26:08;2.37;;;2.27;;
20159;SDS011;50187;50.492;12.134;2022-11-18T11:45:23;2.30;;;2.10;;
20159;SDS011;50187;50.492;12.134;2022-11-18T11:51:17;1.80;;;1.70;;
20159;SDS011;50187;50.492;12.134;2022-11-18T11:57:52;1.80;;;1.70;;
20159;SDS011;50187;50.492;12.134;2022-11-18T12:04:29;2.10;;;2.00;;
20159;SDS011;50187;50.492;12.134;2022-11-18T12:07:23;3.97;;;2.20;;
20159;SDS011;50187;50.492;12.134;2022-11-18T12:10:28;2.33;;;2.23;;
20159;SDS011;50187;50.492;12.134;2022-11-18T12:19:44;2.57;;;2.23;;
20159;SDS011;50187;50.492;12.134;2022-11-18T12:25:56;3.13;;;2.33;;
20159;SDS011;50187;50.492;12.134;2022-11-18T12:28:42;2.50;;;2.17;;
20159;SDS011;50187;50.492;12.134;2022-11-18T12:31:30;3.70;;;2.10;;
20159;SDS011;50187;50.492;12.134;2022-11-18T12:40:29;2.97;;;2.77;;
20159;SDS011;50187;50.492;12.134;2022-11-18T12:55:17;3.33;;;2.80;;
20159;SDS011;50187;50.492;12.134;2022-11-18T12:58:22;4.53;;;3.27;;
20159;SDS011;50187;50.492;12.134;2022-11-18T13:01:10;3.63;;;2.77;;
20159;SDS011;50187;50.492;12.134;2022-11-18T13:04:08;58.13;;;30.00;;
20159;SDS011;50187;50.492;12.134;2022-11-18T13:07:00;335.83;;;173.10;;
20159;SDS011;50187;50.492;12.134;2022-11-18T13:09:47;104.73;;;60.73;;
20159;SDS011;50187;50.492;12.134;2022-11-18T13:12:33;87.23;;;48.53;;
20159;SDS011;50187;50.492;12.134;2022-11-18T13:15:18;72.27;;;39.53;;
20159;SDS011;50187;50.492;12.134;2022-11-18T13:18:22;45.47;;;26.17;;
20159;SDS011;50187;50.492;12.134;2022-11-18T13:21:07;43.70;;;25.07;;
20159;SDS011;50187;50.492;12.134;2022-11-18T13:24:15;160.50;;;79.87;;
20159;SDS011;50187;50.492;12.134;2022-11-18T13:27:04;165.73;;;88.90;;
20159;SDS011;50187;50.492;12.134;2022-11-18T13:29:59;87.57;;;48.50;;
20159;SDS011;50187;50.492;12.134;2022-11-18T13:32:48;50.00;;;29.23;;
20159;SDS011;50187;50.492;12.134;2022-11-18T13:35:35;51.50;;;30.90;;
20159;SDS011;50187;50.492;12.134;2022-11-18T13:38:24;45.23;;;25.93;;
20159;SDS011;50187;50.492;12.134;2022-11-18T13:41:13;40.23;;;22.63;;
20159;SDS011;50187;50.492;12.134;2022-11-18T13:53:25;32.40;;;20.20;;
20159;SDS011;50187;50.492;12.134;2022-11-18T13:56:18;33.30;;;19.00;;
20159;SDS011;50187;50.492;12.134;2022-11-18T13:59:12;25.63;;;16.37;;
20159;SDS011;50187;50.492;12.134;2022-11-18T14:02:06;26.20;;;16.10;;
20159;SDS011;50187;50.492;12.134;2022-11-18T14:04:57;23.23;;;15.63;;
20159;SDS011;50187;50.492;12.134;2022-11-18T14:07:51;25.17;;;15.53;;
20159;SDS011;50187;50.492;12.134;2022-11-18T14:10:41;24.90;;;14.93;;
20159;SDS011;50187;50.492;12.134;2022-11-18T14:13:28;26.27;;;14.90;;
20159;SDS011;50187;50.492;12.134;2022-11-18T14:19:04;19.50;;;12.17;;
20159;SDS011;50187;50.492;12.134;2022-11-18T14:21:49;20.17;;;11.93;;
20159;SDS011;50187;50.492;12.134;2022-11-18T14:24:35;21.67;;;12.33;;
20159;SDS011;50187;50.492;12.134;2022-11-18T14:33:15;17.43;;;11.53;;
20159;SDS011;50187;50.492;12.134;2022-11-18T14:36:14;21.43;;;10.63;;
20159;SDS011;50187;50.492;12.134;2022-11-18T14:39:01;16.70;;;10.93;;
20159;SDS011;50187;50.492;12.134;2022-11-18T14:42:11;18.43;;;9.40;;
20159;SDS011;50187;50.492;12.134;2022-11-18T14:44:56;14.40;;;9.20;;
20159;SDS011;50187;50.492;12.134;2022-11-18T14:47:41;14.63;;;9.53;;
20159;SDS011;50187;50.492;12.134;2022-11-18T14:50:27;13.70;;;9.60;;
20159;SDS011;50187;50.492;12.134;2022-11-18T14:53:12;12.20;;;9.03;;
20159;SDS011;50187;50.492;12.134;2022-11-18T14:55:57;12.13;;;9.10;;
20159;SDS011;50187;50.492;12.134;2022-11-18T14:58:44;14.53;;;9.80;;
20159;SDS011;50187;50.492;12.134;2022-11-18T15:01:28;15.00;;;9.60;;
20159;SDS011;50187;50.492;12.134;2022-11-18T15:04:15;13.87;;;9.93;;
20159;SDS011;50187;50.492;12.134;2022-11-18T15:07:05;12.93;;;9.60;;
20159;SDS011;50187;50.492;12.134;2022-11-18T15:09:50;11.87;;;10.27;;
20159;SDS011;50187;50.492;12.134;2022-11-18T15:12:35;12.03;;;10.73;;
20159;SDS011;50187;50.492;12.134;2022-11-18T15:15:20;14.20;;;10.13;;
20159;SDS011;50187;50.492;12.134;2022-11-18T15:18:05;14.43;;;11.10;;
20159;SDS011;50187;50.492;12.134;2022-11-18T15:20:52;12.13;;;10.07;;
20159;SDS011;50187;50.492;12.134;2022-11-18T15:23:37;13.63;;;11.50;;
20159;SDS011;50187;50.492;12.134;2022-11-18T15:26:24;12.17;;;10.80;;
20159;SDS011;50187;50.492;12.134;2022-11-18T15:29:20;12.50;;;10.50;;
20159;SDS011;50187;50.492;12.134;2022-11-18T15:32:06;16.03;;;12.20;;
20159;SDS011;50187;50.492;12.134;2022-11-18T15:34:51;13.13;;;11.73;;
20159;SDS011;50187;50.492;12.134;2022-11-18T15:37:36;14.53;;;12.00;;
20159;SDS011;50187;50.492;12.134;2022-11-18T15:40:22;15.50;;;13.33;;
20159;SDS011;50187;50.492;12.134;2022-11-18T15:43:08;16.60;;;12.67;;
20159;SDS011;50187;50.492;12.134;2022-11-18T15:45:56;17.30;;;13.87;;
20159;SDS011;50187;50.492;12.134;2022-11-18T15:48:42;15.23;;;13.63;;
20159;SDS011;50187;50.492;12.134;2022-11-18T15:51:27;16.47;;;14.77;;
20159;SDS011;50187;50.492;12.134;2022-11-18T15:54:13;17.63;;;15.77;;
20159;SDS011;50187;50.492;12.134;2022-11-18T15:56:59;16.70;;;15.00;;
20159;SDS011;50187;50.492;12.134;2022-11-18T15:59:43;19.20;;;15.87;;
20159;SDS011;50187;50.492;12.134;2022-11-18T16:02:29;18.87;;;16.93;;
20159;SDS011;50187;50.492;12.134;2022-11-18T16:05:14;18.80;;;16.83;;
20159;SDS011;50187;50.492;12.134;2022-11-18T16:07:59;18.83;;;16.80;;
20159;SDS011;50187;50.492;12.134;2022-11-18T16:10:45;19.73;;;17.90;;
20159;SDS011;50187;50.492;12.134;2022-11-18T16:13:48;19.57;;;17.60;;
20159;SDS011;50187;50.492;12.134;2022-11-18T16:16:34;20.30;;;18.20;;
20159;SDS011;50187;50.492;12.134;2022-11-18T16:19:20;19.93;;;18.03;;
20159;SDS011;50187;50.492;12.134;2022-11-18T16:22:08;20.80;;;18.70;;
20159;SDS011;50187;50.492;12.134;2022-11-18T16:24:54;20.63;;;18.43;;
20159;SDS011;50187;50.492;12.134;2022-11-18T16:27:38;21.77;;;19.77;;
20159;SDS011;50187;50.492;12.134;2022-11-18T16:30:23;22.47;;;20.40;;
20159;SDS011;50187;50.492;12.134;2022-11-18T16:33:27;23.03;;;20.77;;
20159;SDS011;50187;50.492;12.134;2022-11-18T16:36:12;23.23;;;20.87;;
20159;SDS011;50187;50.492;12.134;2022-11-18T16:39:01;23.77;;;21.37;;
20159;SDS011;50187;50.492;12.134;2022-11-18T16:41:48;23.67;;;21.43;;
20159;SDS011;50187;50.492;12.134;2022-11-18T16:44:33;24.63;;;22.23;;
20159;SDS011;50187;50.492;12.134;2022-11-18T16:47:19;25.33;;;22.83;;
20159;SDS011;50187;50.492;12.134;2022-11-18T16:50:04;24.20;;;21.90;;
20159;SDS011;50187;50.492;12.134;2022-11-18T16:52:50;23.33;;;21.07;;
20159;SDS011;50187;50.492;12.134;2022-11-18T16:55:35;24.43;;;22.07;;
20159;SDS011;50187;50.492;12.134;2022-11-18T16:58:20;24.13;;;21.90;;
20159;SDS011;50187;50.492;12.134;2022-11-18T17:01:08;22.23;;;20.13;;
20159;SDS011;50187;50.492;12.134;2022-11-18T17:04:05;22.93;;;20.73;;
20159;SDS011;50187;50.492;12.134;2022-11-18T17:06:51;22.57;;;20.50;;
20159;SDS011;50187;50.492;12.134;2022-11-18T17:09:37;22.77;;;20.57;;
20159;SDS011;50187;50.492;12.134;2022-11-18T17:12:22;22.77;;;20.60;;
20159;SDS011;50187;50.492;12.134;2022-11-18T17:15:07;22.53;;;20.33;;
20159;SDS011;50187;50.492;12.134;2022-11-18T17:17:53;21.33;;;19.20;;
20159;SDS011;50187;50.492;12.134;2022-11-18T17:20:38;22.10;;;20.10;;
20159;SDS011;50187;50.492;12.134;2022-11-18T17:23:23;22.57;;;20.37;;
20159;SDS011;50187;50.492;12.134;2022-11-18T17:26:08;19.20;;;17.30;;
20159;SDS011;50187;50.492;12.134;2022-11-18T17:28:53;19.20;;;17.40;;
20159;SDS011;50187;50.492;12.134;2022-11-18T17:31:40;21.07;;;19.13;;
20159;SDS011;50187;50.492;12.134;2022-11-18T17:34:25;20.37;;;18.47;;
20159;SDS011;50187;50.492;12.134;2022-11-18T17:37:10;19.67;;;17.80;;
20159;SDS011;50187;50.492;12.134;2022-11-18T17:39:55;19.30;;;17.30;;
20159;SDS011;50187;50.492;12.134;2022-11-18T17:42:40;19.13;;;17.33;;
20159;SDS011;50187;50.492;12.134;2022-11-18T17:45:25;18.53;;;16.83;;
20159;SDS011;50187;50.492;12.134;2022-11-18T17:48:10;18.30;;;16.70;;
20159;SDS011;50187;50.492;12.134;2022-11-18T17:51:01;18.40;;;16.70;;
20159;SDS011;50187;50.492;12.134;2022-11-18T17:53:48;19.10;;;17.17;;
20159;SDS011;50187;50.492;12.134;2022-11-18T17:56:34;18.27;;;16.50;;
20159;SDS011;50187;50.492;12.134;2022-11-18T17:59:20;18.47;;;16.67;;
20159;SDS011;50187;50.492;12.134;2022-11-18T18:02:06;16.97;;;15.30;;
20159;SDS011;50187;50.492;12.134;2022-11-18T18:04:51;16.60;;;15.10;;
20159;SDS011;50187;50.492;12.134;2022-11-18T18:07:36;17.00;;;15.50;;
20159;SDS011;50187;50.492;12.134;2022-11-18T18:10:21;16.87;;;15.27;;
20159;SDS011;50187;50.492;12.134;2022-11-18T18:13:07;16.43;;;14.83;;
20159;SDS011;50187;50.492;12.134;2022-11-18T18:16:11;15.97;;;14.47;;
20159;SDS011;50187;50.492;12.134;2022-11-18T18:18:56;16.07;;;14.57;;
20159;SDS011;50187;50.492;12.134;2022-11-18T18:21:42;16.20;;;14.70;;
20159;SDS011;50187;50.492;12.134;2022-11-18T18:24:28;16.37;;;14.77;;